Time;durP1;ratioP1;P1;durP2;ratioP2;P2;SDS_P1;SDS_P2;PMS_P1;PMS_P2;Temp;Humidity;BMP_temperature;BMP_pressure;BME280_temperature;BME280_humidity;BME280_pressure;Samples;Min_cycle;Max_cycle;Signal;HPM_P1;HPM_P2
2022/08/04 00:01:17;;;;;;;12.60;11.90;;;26.10;19.00;;;;;;4955526;29;20862;-63
2022/08/04 00:03:54;;;;;;;13.17;12.57;;;26.10;19.20;;;;;;4955551;29;20419;-64
2022/08/04 00:06:54;;;;;;;13.17;12.20;;;26.10;19.30;;;;;;4955523;29;20526;-64
2022/08/04 00:09:47;;;;;;;12.90;12.40;;;26.00;19.30;;;;;;4955386;29;20419;-64
2022/08/04 00:12:16;;;;;;;12.80;12.20;;;26.00;19.20;;;;;;4955067;29;20839;-64
2022/08/04 00:14:48;;;;;;;13.60;13.00;;;26.00;19.20;;;;;;4955282;29;20505;-64
2022/08/04 00:17:16;;;;;;;12.10;11.50;;;25.90;19.20;;;;;;4955284;29;20411;-64
2022/08/04 00:19:46;;;;;;;12.77;12.00;;;26.00;19.20;;;;;;4955317;29;20422;-65
2022/08/04 00:22:14;;;;;;;11.67;10.90;;;25.90;19.50;;;;;;4954960;29;20417;-64
2022/08/04 00:24:40;;;;;;;12.20;11.60;;;25.80;19.60;;;;;;4955160;29;20430;-64
2022/08/04 00:27:07;;;;;;;11.20;10.80;;;25.80;19.70;;;;;;4955023;28;20427;-64
2022/08/04 00:29:34;;;;;;;12.27;11.77;;;25.90;19.20;;;;;;4954848;29;20190;-64
2022/08/04 00:32:02;;;;;;;12.50;11.87;;;25.80;18.90;;;;;;4954863;29;20763;-65
2022/08/04 00:34:30;;;;;;;12.33;11.83;;;25.80;18.90;;;;;;4954837;29;20843;-64
2022/08/04 00:36:57;;;;;;;13.20;12.60;;;25.80;19.30;;;;;;4954787;28;20411;-64
2022/08/04 00:39:23;;;;;;;13.00;12.43;;;25.80;20.30;;;;;;4954687;29;20912;-64
2022/08/04 00:42:10;;;;;;;13.80;13.10;;;25.80;20.00;;;;;;4954642;29;20547;-64
2022/08/04 00:45:13;;;;;;;12.63;12.10;;;25.80;20.00;;;;;;4954581;29;20584;-64
2022/08/04 00:48:00;;;;;;;12.10;11.30;;;25.80;20.20;;;;;;4954617;29;20411;-64
2022/08/04 00:50:40;;;;;;;12.13;11.53;;;25.70;20.30;;;;;;4954435;29;20427;-64
2022/08/04 00:53:23;;;;;;;12.60;11.93;;;25.70;20.50;;;;;;4954498;29;20810;-64
2022/08/04 00:56:17;;;;;;;12.57;11.87;;;25.70;20.70;;;;;;4954660;29;20426;-64
2022/08/04 00:59:10;;;;;;;13.97;13.17;;;25.70;20.90;;;;;;4954656;29;20423;-64
2022/08/04 01:01:55;;;;;;;14.47;13.77;;;25.60;21.10;;;;;;4954439;29;20915;-64
2022/08/04 01:04:47;;;;;;;13.43;12.83;;;25.50;21.10;;;;;;4954431;29;20507;-64
2022/08/04 01:07:33;;;;;;;13.87;12.93;;;25.50;21.00;;;;;;4954301;29;20422;-64
2022/08/04 01:10:25;;;;;;;13.30;12.80;;;25.50;21.00;;;;;;4953977;29;20740;-64
2022/08/04 01:12:54;;;;;;;12.70;12.10;;;25.40;21.10;;;;;;4954175;29;20820;-64
2022/08/04 01:15:42;;;;;;;13.53;12.83;;;25.50;21.10;;;;;;4954239;29;20419;-64
2022/08/04 01:18:15;;;;;;;12.80;12.10;;;25.60;21.00;;;;;;4954481;29;20450;-64
2022/08/04 01:20:58;;;;;;;11.70;11.30;;;25.50;21.10;;;;;;4955111;29;20778;-64
2022/08/04 01:23:36;;;;;;;12.70;12.10;;;25.50;21.00;;;;;;4955098;29;20411;-64
2022/08/04 01:26:26;;;;;;;13.30;12.67;;;25.50;21.00;;;;;;4954478;29;20414;-64
2022/08/04 01:29:08;;;;;;;12.57;12.07;;;25.30;21.30;;;;;;4954120;29;20421;-64
2022/08/04 01:31:56;;;;;;;12.23;11.83;;;25.30;21.40;;;;;;4953536;29;20430;-64
2022/08/04 01:34:27;;;;;;;13.37;12.70;;;25.20;21.60;;;;;;4953582;29;20474;-64
2022/08/04 01:37:03;;;;;;;13.00;12.40;;;25.30;21.60;;;;;;4953949;29;20514;-65
2022/08/04 01:39:42;;;;;;;13.10;12.50;;;25.30;21.40;;;;;;4953692;29;20427;-65
2022/08/04 01:42:10;;;;;;;12.83;12.23;;;25.20;21.70;;;;;;4954950;28;20394;-64
2022/08/04 01:44:38;;;;;;;12.50;11.90;;;25.30;21.50;;;;;;4953427;29;20423;-64
2022/08/04 01:47:03;;;;;;;12.43;11.83;;;25.30;21.40;;;;;;4953591;29;20901;-65
2022/08/04 01:49:31;;;;;;;12.50;11.90;;;25.30;21.40;;;;;;4952933;28;20515;-64
2022/08/04 01:51:57;;;;;;;13.03;12.40;;;25.30;21.30;;;;;;4954707;28;20213;-65
2022/08/04 01:54:24;;;;;;;13.70;13.10;;;25.30;21.30;;;;;;4953425;29;20474;-64
2022/08/04 01:56:50;;;;;;;12.93;12.40;;;25.30;21.50;;;;;;4953754;29;20498;-64
2022/08/04 01:59:19;;;;;;;13.33;12.43;;;25.30;21.60;;;;;;4953440;29;20451;-64
2022/08/04 02:01:45;;;;;;;13.50;12.80;;;25.10;21.80;;;;;;4953359;29;20813;-64
2022/08/04 02:04:19;;;;;;;12.87;12.17;;;25.10;21.90;;;;;;4953451;29;20447;-64
2022/08/04 02:06:47;;;;;;;13.03;12.53;;;25.10;21.90;;;;;;4953481;29;20477;-64
2022/08/04 02:09:24;;;;;;;13.13;12.53;;;25.10;22.00;;;;;;4953524;29;20473;-64
2022/08/04 02:12:34;;;;;;;12.00;11.50;;;25.20;21.80;;;;;;4953373;29;20454;-64
2022/08/04 02:15:20;;;;;;;12.70;12.20;;;25.10;21.80;;;;;;4895206;29;20559;-64
2022/08/04 02:18:05;;;;;;;13.03;12.43;;;25.20;21.80;;;;;;4952682;29;20800;-64
2022/08/04 02:20:37;;;;;;;12.60;12.10;;;25.10;21.80;;;;;;4953054;29;20471;-64
2022/08/04 02:23:14;;;;;;;13.50;12.70;;;25.10;21.70;;;;;;4954755;28;20411;-65
2022/08/04 02:25:54;;;;;;;13.40;12.90;;;25.10;22.00;;;;;;4953234;29;20505;-65
2022/08/04 02:29:00;;;;;;;13.80;13.20;;;25.10;22.20;;;;;;4953497;29;20489;-65
2022/08/04 02:31:26;;;;;;;13.33;12.83;;;25.10;22.20;;;;;;4918372;29;20431;-64
2022/08/04 02:34:04;;;;;;;14.73;13.73;;;25.10;22.10;;;;;;4953064;29;21032;-64
2022/08/04 02:36:35;;;;;;;13.80;13.20;;;25.00;22.10;;;;;;4953162;29;21027;-64
2022/08/04 02:39:04;;;;;;;13.03;12.43;;;25.10;22.00;;;;;;4953137;29;20454;-64
2022/08/04 02:41:31;;;;;;;13.73;13.13;;;25.10;22.00;;;;;;4952845;29;20419;-64
2022/08/04 02:44:05;;;;;;;14.20;13.40;;;25.10;22.00;;;;;;4952975;29;20986;-64
2022/08/04 02:46:32;;;;;;;14.50;13.53;;;25.10;22.20;;;;;;4953022;29;20451;-64
2022/08/04 02:49:02;;;;;;;13.47;12.87;;;25.00;22.20;;;;;;4953052;29;20423;-64
2022/08/04 02:51:41;;;;;;;13.60;13.10;;;25.00;22.30;;;;;;4952573;29;20994;-64
2022/08/04 02:54:08;;;;;;;14.63;13.63;;;25.00;22.90;;;;;;4952815;29;20982;-65
2022/08/04 02:56:36;;;;;;;13.57;13.07;;;24.90;22.50;;;;;;4952885;29;20425;-64
2022/08/04 02:59:05;;;;;;;13.20;12.70;;;25.00;22.40;;;;;;4952965;29;20459;-64
2022/08/04 03:01:32;;;;;;;13.20;12.33;;;25.00;22.50;;;;;;4956541;29;20450;-64
2022/08/04 03:04:16;;;;;;;14.00;13.40;;;25.00;22.40;;;;;;4956891;29;20427;-64
2022/08/04 03:07:00;;;;;;;14.10;13.40;;;24.90;22.80;;;;;;4956762;29;20517;-64
2022/08/04 03:10:03;;;;;;;14.23;13.43;;;24.90;22.80;;;;;;4956527;29;20431;-64
2022/08/04 03:12:53;;;;;;;14.13;13.33;;;24.90;22.70;;;;;;4956508;29;20837;-64
2022/08/04 03:15:22;;;;;;;13.83;13.13;;;24.80;22.70;;;;;;4956476;29;20423;-64
2022/08/04 03:18:13;;;;;;;14.23;13.53;;;24.80;23.00;;;;;;4956698;29;20510;-64
2022/08/04 03:21:15;;;;;;;14.90;14.10;;;24.80;23.00;;;;;;4956191;29;20961;-64
2022/08/04 03:23:50;;;;;;;14.20;13.60;;;24.70;23.00;;;;;;4956409;29;20415;-64
2022/08/04 03:26:19;;;;;;;14.73;14.07;;;24.60;23.40;;;;;;4956281;29;20454;-65
2022/08/04 03:29:20;;;;;;;13.90;13.30;;;24.60;23.30;;;;;;4956407;29;20422;-64
2022/08/04 03:32:03;;;;;;;13.50;12.80;;;24.60;23.40;;;;;;4957717;29;20865;-64
2022/08/04 03:34:53;;;;;;;13.43;12.83;;;24.60;23.20;;;;;;4956053;29;20509;-64
2022/08/04 03:37:37;;;;;;;14.40;13.50;;;24.70;23.10;;;;;;4956109;29;20434;-64
2022/08/04 03:40:20;;;;;;;13.87;13.00;;;24.70;23.00;;;;;;4955819;29;20423;-64
2022/08/04 03:43:25;;;;;;;14.67;13.67;;;24.80;22.90;;;;;;4956027;29;20415;-64
2022/08/04 03:46:09;;;;;;;13.27;12.60;;;24.80;23.10;;;;;;4897795;29;20508;-64
2022/08/04 03:48:44;;;;;;;13.60;13.00;;;24.70;23.20;;;;;;4897734;29;20510;-64
2022/08/04 03:54:39;;;;;;;15.20;14.50;;;24.60;23.40;;;;;;4947382;28;20517;-62
2022/08/04 03:57:40;;;;;;;15.03;14.07;;;24.70;23.20;;;;;;4955947;29;20507;-62
2022/08/04 04:00:08;;;;;;;15.80;15.10;;;24.50;23.30;;;;;;4942645;29;20443;-62
2022/08/04 04:03:18;;;;;;;15.40;14.60;;;24.50;23.50;;;;;;4955498;29;20478;-61
2022/08/04 04:06:15;;;;;;;14.43;13.60;;;24.60;23.50;;;;;;4933227;29;20422;-61
2022/08/04 04:09:00;;;;;;;13.37;12.77;;;24.50;23.60;;;;;;4955483;29;20419;-62
2022/08/04 04:11:59;;;;;;;15.37;14.47;;;24.50;23.60;;;;;;4954602;28;20821;-62
2022/08/04 04:14:33;;;;;;;15.50;14.80;;;24.60;23.60;;;;;;4956675;28;20467;-61
2022/08/04 04:17:05;;;;;;;14.60;14.00;;;24.60;23.50;;;;;;4955881;29;21000;-61
2022/08/04 04:19:33;;;;;;;15.53;14.77;;;24.50;23.60;;;;;;4955204;29;20423;-61
2022/08/04 04:22:21;;;;;;;14.73;14.03;;;24.60;23.50;;;;;;4955061;29;20425;-61
2022/08/04 04:25:10;;;;;;;13.63;13.13;;;24.60;23.60;;;;;;4955347;29;20815;-61
2022/08/04 04:27:48;;;;;;;13.93;13.33;;;24.60;23.60;;;;;;4955045;29;20782;-61
2022/08/04 04:30:43;;;;;;;14.37;13.77;;;24.50;23.70;;;;;;4955041;29;20818;-61
2022/08/04 04:33:44;;;;;;;15.07;14.37;;;24.50;23.70;;;;;;4955059;29;20459;-61
2022/08/04 04:36:24;;;;;;;14.10;13.40;;;24.60;23.40;;;;;;4956582;28;20452;-60
2022/08/04 04:39:25;;;;;;;14.93;14.27;;;24.50;23.20;;;;;;4955092;29;20446;-61
2022/08/04 04:41:58;;;;;;;13.77;13.13;;;24.50;23.30;;;;;;4954783;29;20501;-61
2022/08/04 04:44:30;;;;;;;14.50;13.90;;;24.50;23.10;;;;;;4954910;29;20419;-61
2022/08/04 04:46:55;;;;;;;15.20;14.60;;;24.40;23.20;;;;;;4954800;29;20489;-60
2022/08/04 04:49:42;;;;;;;15.13;14.63;;;24.50;23.10;;;;;;4954687;29;20427;-60
2022/08/04 04:52:27;;;;;;;16.10;14.90;;;24.50;22.90;;;;;;4954459;29;20253;-61
2022/08/04 04:54:57;;;;;;;14.90;14.30;;;24.60;23.00;;;;;;4954503;29;20466;-61
2022/08/04 04:57:25;;;;;;;14.30;13.70;;;24.50;22.90;;;;;;4953312;29;20426;-60
2022/08/04 04:59:55;;;;;;;14.07;13.47;;;24.50;22.80;;;;;;4954149;29;20470;-61
2022/08/04 05:03:11;;;;;;;14.17;13.57;;;24.50;23.00;;;;;;4954240;29;20425;-61
2022/08/04 05:05:56;;;;;;;13.60;13.07;;;24.50;22.90;;;;;;4895973;29;20452;-60
2022/08/04 05:08:52;;;;;;;13.73;13.23;;;24.50;22.90;;;;;;4953669;29;20414;-61
2022/08/04 05:11:20;;;;;;;13.27;12.77;;;24.50;23.00;;;;;;4948356;29;20457;-61
2022/08/04 05:13:53;;;;;;;14.57;13.87;;;24.40;22.90;;;;;;4954346;29;20826;-61
2022/08/04 05:16:30;;;;;;;13.83;13.23;;;24.40;22.90;;;;;;4954187;29;20427;-61
2022/08/04 05:19:26;;;;;;;13.50;13.00;;;24.40;23.10;;;;;;4953789;29;20419;-63
2022/08/04 05:22:06;;;;;;;17.20;16.10;;;24.50;22.80;;;;;;4953885;29;20415;-61
2022/08/04 05:24:38;;;;;;;16.50;15.60;;;24.50;22.70;;;;;;4953043;28;20450;-60
2022/08/04 05:27:11;;;;;;;15.30;14.73;;;24.60;22.60;;;;;;4953807;29;20423;-60
2022/08/04 05:29:45;;;;;;;16.37;15.70;;;24.60;22.50;;;;;;4953936;29;20778;-63
2022/08/04 05:32:13;;;;;;;15.40;14.70;;;24.60;22.50;;;;;;4953835;29;20441;-62
2022/08/04 05:34:48;;;;;;;15.53;14.50;;;24.60;22.20;;;;;;4953188;29;20467;-62
2022/08/04 05:37:19;;;;;;;14.70;14.00;;;24.60;22.40;;;;;;4953942;29;20757;-62
2022/08/04 05:39:52;;;;;;;14.60;13.87;;;24.70;22.30;;;;;;4953756;29;20422;-61
2022/08/04 05:42:19;;;;;;;14.50;13.70;;;24.70;22.50;;;;;;4953317;29;20555;-61
2022/08/04 05:44:45;;;;;;;15.27;14.53;;;24.70;22.50;;;;;;4953717;29;20423;-63
2022/08/04 05:47:12;;;;;;;15.50;14.60;;;24.70;22.50;;;;;;4953632;29;20558;-62
2022/08/04 05:49:40;;;;;;;14.70;13.90;;;24.80;22.40;;;;;;4952990;29;20419;-63
2022/08/04 05:52:06;;;;;;;14.30;13.60;;;24.80;22.50;;;;;;4953407;29;20538;-63
2022/08/04 05:54:34;;;;;;;14.37;13.57;;;24.80;22.30;;;;;;4953462;29;20962;-62
2022/08/04 05:57:03;;;;;;;14.63;14.00;;;24.90;22.50;;;;;;4953725;29;20419;-66
2022/08/04 05:59:30;;;;;;;15.40;14.33;;;24.90;22.40;;;;;;4954885;28;20759;-64
2022/08/04 06:01:58;;;;;;;15.20;14.50;;;24.90;22.40;;;;;;4953232;29;20447;-64
2022/08/04 06:04:31;;;;;;;16.13;14.70;;;24.90;22.40;;;;;;4953257;29;20426;-64
2022/08/04 06:06:56;;;;;;;15.90;15.00;;;24.90;22.30;;;;;;4953440;29;20435;-64
2022/08/04 06:09:22;;;;;;;16.30;15.23;;;24.90;21.90;;;;;;4953373;29;20453;-64
2022/08/04 06:11:51;;;;;;;18.30;17.03;;;25.00;22.40;;;;;;4950496;29;20556;-66
2022/08/04 06:14:20;;;;;;;14.20;13.60;;;25.00;21.20;;;;;;4952026;29;20211;-65
2022/08/04 06:16:48;;;;;;;14.80;14.30;;;25.00;20.80;;;;;;4953273;29;20454;-64
2022/08/04 06:19:15;;;;;;;15.40;14.40;;;25.10;21.30;;;;;;4953131;29;20431;-64
2022/08/04 06:21:47;;;;;;;13.40;12.90;;;25.10;20.10;;;;;;4952725;29;20422;-63
2022/08/04 06:24:17;;;;;;;13.97;13.37;;;25.20;19.50;;;;;;4953216;29;20916;-64
2022/08/04 06:26:44;;;;;;;13.70;13.20;;;25.30;20.00;;;;;;4952908;29;20478;-63
2022/08/04 06:29:19;;;;;;;14.27;13.47;;;25.30;20.10;;;;;;4953123;29;20435;-64
2022/08/04 06:31:46;;;;;;;14.10;13.30;;;25.30;20.70;;;;;;4952781;29;20767;-63
2022/08/04 06:34:15;;;;;;;14.77;13.20;;;25.50;20.50;;;;;;4951965;29;20975;-64
2022/08/04 06:36:41;;;;;;;13.63;12.60;;;25.50;20.20;;;;;;4952652;29;20518;-63
2022/08/04 06:39:08;;;;;;;14.40;12.93;;;25.60;19.60;;;;;;4952784;29;20761;-61
2022/08/04 06:41:34;;;;;;;14.30;13.60;;;25.70;19.30;;;;;;4951392;29;20775;-61
2022/08/04 06:44:04;;;;;;;14.87;14.03;;;25.70;20.20;;;;;;4952739;29;20470;-61
2022/08/04 06:46:31;;;;;;;14.50;13.80;;;25.80;19.90;;;;;;4952589;29;20419;-61
2022/08/04 06:48:58;;;;;;;13.67;13.07;;;25.80;20.00;;;;;;4952700;29;20469;-63
2022/08/04 06:51:24;;;;;;;14.40;13.67;;;25.80;19.90;;;;;;4952310;29;20505;-64
2022/08/04 06:53:50;;;;;;;15.03;14.00;;;25.80;19.80;;;;;;4952480;29;20603;-64
2022/08/04 06:56:18;;;;;;;16.33;14.97;;;25.70;19.90;;;;;;4952663;29;20834;-63
2022/08/04 06:58:45;;;;;;;15.27;14.60;;;25.80;19.80;;;;;;4952595;29;20419;-63
2022/08/04 07:01:13;;;;;;;15.13;14.53;;;25.90;19.40;;;;;;4952464;29;20848;-63
2022/08/04 07:03:39;;;;;;;14.70;13.77;;;25.90;19.60;;;;;;4952446;29;21157;-63
2022/08/04 07:06:06;;;;;;;14.50;14.00;;;26.00;19.20;;;;;;4952568;29;20423;-63
2022/08/04 07:08:33;;;;;;;16.00;15.10;;;26.00;19.40;;;;;;4952315;29;20533;-64
2022/08/04 07:11:00;;;;;;;14.30;13.70;;;26.20;19.20;;;;;;4952297;29;20884;-63
2022/08/04 07:13:27;;;;;;;14.10;13.40;;;26.40;18.80;;;;;;4952169;29;20462;-64
2022/08/04 07:15:54;;;;;;;14.33;13.60;;;26.50;18.40;;;;;;4948193;29;20778;-64
2022/08/04 07:18:20;;;;;;;14.33;13.60;;;26.50;19.00;;;;;;4951952;29;20441;-63
2022/08/04 07:20:47;;;;;;;13.93;13.33;;;26.40;19.30;;;;;;4952111;29;20418;-61
2022/08/04 07:23:16;;;;;;;15.70;14.77;;;26.50;19.80;;;;;;4952028;29;20198;-61
2022/08/04 07:25:43;;;;;;;15.53;14.70;;;26.60;19.40;;;;;;4952473;29;20422;-61
2022/08/04 07:28:09;;;;;;;15.93;14.83;;;26.60;19.30;;;;;;4952107;29;20514;-61
2022/08/04 07:30:35;;;;;;;15.07;14.47;;;26.60;19.40;;;;;;4951795;29;20525;-61
2022/08/04 07:33:02;;;;;;;14.70;14.10;;;26.60;19.20;;;;;;4952007;29;20179;-61
2022/08/04 07:35:28;;;;;;;14.70;14.00;;;26.50;19.10;;;;;;4952057;29;20506;-61
2022/08/04 07:37:54;;;;;;;15.63;14.70;;;26.80;18.50;;;;;;4952042;29;20548;-61
2022/08/04 07:40:20;;;;;;;15.87;15.07;;;27.10;18.30;;;;;;4951866;29;20415;-61
2022/08/04 07:42:46;;;;;;;16.90;15.87;;;26.90;18.40;;;;;;4952125;29;20176;-61
2022/08/04 07:45:12;;;;;;;17.47;16.37;;;27.10;17.90;;;;;;4951838;29;20475;-61
2022/08/04 07:47:41;;;;;;;16.10;15.20;;;27.00;18.30;;;;;;4954274;28;20226;-61
2022/08/04 07:50:09;;;;;;;14.70;13.77;;;27.10;17.50;;;;;;4938280;29;20432;-61
2022/08/04 07:52:36;;;;;;;14.83;13.87;;;27.20;17.60;;;;;;4936209;29;20452;-61
2022/08/04 07:55:03;;;;;;;15.67;14.43;;;27.20;18.00;;;;;;4935926;29;20472;-61
2022/08/04 07:57:28;;;;;;;14.63;13.93;;;27.30;17.70;;;;;;4936100;29;20408;-61
2022/08/04 07:59:54;;;;;;;15.13;14.33;;;27.20;17.60;;;;;;4935799;29;20904;-61
2022/08/04 08:02:21;;;;;;;14.77;14.10;;;27.50;17.80;;;;;;4935895;29;20552;-61
2022/08/04 08:04:47;;;;;;;14.87;13.87;;;27.80;17.30;;;;;;4935974;29;20184;-61
2022/08/04 08:07:13;;;;;;;14.73;14.13;;;27.70;17.70;;;;;;4935919;29;20424;-61
2022/08/04 08:09:39;;;;;;;14.80;14.00;;;27.70;16.90;;;;;;4935906;29;20590;-61
2022/08/04 08:12:07;;;;;;;15.87;14.97;;;27.70;17.10;;;;;;4935778;29;20180;-61
2022/08/04 08:14:34;;;;;;;14.63;13.73;;;27.80;17.30;;;;;;4935589;29;20208;-61
2022/08/04 08:17:01;;;;;;;15.00;14.20;;;27.70;17.40;;;;;;4935909;29;20420;-62
2022/08/04 08:19:27;;;;;;;15.70;15.00;;;27.70;17.80;;;;;;4935493;29;20830;-61
2022/08/04 08:21:53;;;;;;;14.53;13.73;;;27.60;17.80;;;;;;4935600;29;20416;-61
2022/08/04 08:24:19;;;;;;;14.90;14.10;;;27.60;16.90;;;;;;4935696;29;20424;-61
2022/08/04 08:26:45;;;;;;;13.97;13.37;;;27.70;16.60;;;;;;4935696;29;20180;-61
2022/08/04 08:29:11;;;;;;;14.17;13.67;;;28.20;14.20;;;;;;4935605;29;20430;-61
2022/08/04 08:31:37;;;;;;;13.93;13.43;;;28.00;15.30;;;;;;4935379;29;20416;-62
2022/08/04 08:34:03;;;;;;;14.30;13.80;;;28.80;12.20;;;;;;4935327;29;21015;-61
2022/08/04 08:36:44;;;;;;;14.23;13.73;;;29.30;10.80;;;;;;4935226;29;20176;-61
2022/08/04 08:39:28;;;;;;;15.00;14.20;;;29.30;12.00;;;;;;4944906;29;20788;-61
2022/08/04 08:42:11;;;;;;;14.10;13.60;;;28.90;11.80;;;;;;4954308;29;20422;-61
2022/08/04 08:44:55;;;;;;;14.80;14.10;;;28.90;12.20;;;;;;4954539;29;20768;-62
2022/08/04 08:47:21;;;;;;;13.33;12.83;;;28.70;12.70;;;;;;4954362;29;20411;-61
2022/08/04 08:50:23;;;;;;;14.70;14.00;;;28.60;13.30;;;;;;4954453;29;20427;-62
2022/08/04 08:53:09;;;;;;;14.03;13.43;;;28.90;13.10;;;;;;4939162;29;20202;-61
2022/08/04 08:55:53;;;;;;;13.87;13.27;;;29.50;11.60;;;;;;4954232;29;20421;-62
2022/08/04 08:58:28;;;;;;;14.03;13.43;;;29.60;11.80;;;;;;4954058;28;20787;-61
2022/08/04 09:01:05;;;;;;;13.63;13.20;;;30.20;10.20;;;;;;4954006;29;20422;-61
2022/08/04 09:03:50;;;;;;;14.03;13.53;;;30.10;10.60;;;;;;4954126;29;20418;-61
2022/08/04 09:06:21;;;;;;;14.03;13.53;;;30.10;10.70;;;;;;4935958;29;20408;-61
2022/08/04 09:09:08;;;;;;;14.80;14.20;;;30.00;11.10;;;;;;4935034;29;20815;-61
2022/08/04 09:11:47;;;;;;;14.00;13.50;;;29.70;12.10;;;;;;4934443;29;20411;-62
2022/08/04 09:14:19;;;;;;;14.37;13.47;;;29.90;12.50;;;;;;4944572;29;20466;-61
2022/08/04 09:17:01;;;;;;;14.83;13.83;;;30.50;10.40;;;;;;4953726;29;20415;-61
2022/08/04 09:19:50;;;;;;;14.60;13.80;;;30.60;10.40;;;;;;4953632;29;20848;-62
2022/08/04 09:22:21;;;;;;;13.90;13.40;;;30.80;10.50;;;;;;4953424;29;20801;-61
2022/08/04 09:24:57;;;;;;;13.70;13.20;;;31.00;10.30;;;;;;4934723;29;20920;-62
2022/08/04 09:27:50;;;;;;;14.23;13.53;;;31.10;9.40;;;;;;4934545;29;20424;-64
2022/08/04 09:30:23;;;;;;;14.00;13.40;;;31.50;8.80;;;;;;4934365;29;20913;-63
2022/08/04 09:32:56;;;;;;;14.17;13.60;;;31.50;8.90;;;;;;4949038;29;20435;-64
2022/08/04 09:36:09;;;;;;;13.67;13.17;;;31.00;9.90;;;;;;4953927;29;20501;-64
2022/08/04 09:39:08;;;;;;;13.70;13.20;;;31.30;9.20;;;;;;4842972;29;20510;-64
2022/08/04 09:41:34;;;;;;;14.70;13.87;;;31.20;9.00;;;;;;4953515;29;20451;-64
2022/08/04 09:44:27;;;;;;;13.63;12.87;;;31.10;10.10;;;;;;4953583;29;20458;-64
2022/08/04 09:46:58;;;;;;;13.83;13.33;;;31.40;8.80;;;;;;4953772;29;20187;-64
2022/08/04 09:49:37;;;;;;;14.87;14.17;;;31.20;9.70;;;;;;4953495;29;20836;-64
2022/08/04 09:52:15;;;;;;;13.80;13.20;;;31.40;9.20;;;;;;4953371;29;20974;-64
2022/08/04 09:54:59;;;;;;;14.30;13.70;;;31.40;8.20;;;;;;4953347;29;20550;-64
2022/08/04 09:57:49;;;;;;;14.90;14.30;;;32.00;8.00;;;;;;4953617;29;20439;-64
2022/08/04 10:00:19;;;;;;;13.73;13.00;;;31.90;7.70;;;;;;4953302;29;20427;-64
2022/08/04 10:02:57;;;;;;;13.50;12.90;;;31.90;6.90;;;;;;4953272;29;20419;-63
2022/08/04 10:05:32;;;;;;;13.40;12.70;;;32.40;6.80;;;;;;4933925;29;20424;-64
2022/08/04 10:08:16;;;;;;;13.97;13.17;;;32.70;6.90;;;;;;4934260;29;20399;-62
2022/08/04 10:10:58;;;;;;;13.40;12.80;;;32.90;6.70;;;;;;4949420;28;20412;-66
2022/08/04 10:13:42;;;;;;;12.67;12.23;;;33.00;6.30;;;;;;4934163;29;20474;-67
2022/08/04 10:16:17;;;;;;;13.20;12.70;;;33.00;5.50;;;;;;4950144;29;20423;-67
2022/08/04 10:19:09;;;;;;;13.63;13.13;;;33.00;4.60;;;;;;4953231;29;20446;-67
2022/08/04 10:21:42;;;;;;;13.57;12.97;;;32.90;6.00;;;;;;4952944;29;20411;-67
2022/08/04 10:24:19;;;;;;;12.27;11.87;;;32.90;5.20;;;;;;4953131;29;20438;-67
2022/08/04 10:26:46;;;;;;;12.80;12.20;;;33.20;4.20;;;;;;4953111;29;20427;-69
2022/08/04 10:29:41;;;;;;;12.73;12.07;;;33.40;3.20;;;;;;4953270;29;20506;-65
2022/08/04 10:32:21;;;;;;;12.13;11.63;;;33.90;2.70;;;;;;4952713;29;20430;-68
2022/08/04 10:35:09;;;;;;;12.20;11.80;;;34.10;2.60;;;;;;4953050;29;20458;-66
2022/08/04 10:38:00;;;;;;;12.57;11.90;;;34.10;3.00;;;;;;4952905;29;20414;-67
2022/08/04 10:40:46;;;;;;;13.07;12.20;;;34.30;2.00;;;;;;4952466;29;20411;-64
2022/08/04 10:43:31;;;;;;;12.77;12.07;;;34.30;2.00;;;;;;4954177;28;20418;-65
2022/08/04 10:46:02;;;;;;;12.47;11.67;;;34.10;2.60;;;;;;4953002;29;20415;-68
2022/08/04 10:48:51;;;;;;;12.33;11.60;;;34.00;2.40;;;;;;4952774;29;20422;-64
2022/08/04 10:51:39;;;;;;;11.67;11.27;;;33.90;2.90;;;;;;4952499;29;20427;-65
2022/08/04 10:54:30;;;;;;;12.30;11.70;;;33.70;2.80;;;;;;4952776;29;20467;-66
2022/08/04 10:57:05;;;;;;;12.77;12.17;;;33.80;2.90;;;;;;4952333;29;20459;-65
2022/08/04 10:59:48;;;;;;;12.27;11.67;;;33.90;2.90;;;;;;4952756;29;20421;-65
2022/08/04 11:02:26;;;;;;;12.23;11.83;;;34.10;2.70;;;;;;4950985;29;20951;-65
2022/08/04 11:05:24;;;;;;;12.23;11.73;;;34.00;2.80;;;;;;4952469;29;20991;-64
2022/08/04 11:07:54;;;;;;;14.20;12.83;;;33.90;2.90;;;;;;4944993;29;20427;-65
2022/08/04 11:10:24;;;;;;;12.87;12.20;;;33.60;2.80;;;;;;4952529;29;20427;-63
2022/08/04 11:12:55;;;;;;;12.30;11.87;;;33.60;2.80;;;;;;4952629;29;20457;-63
2022/08/04 11:15:24;;;;;;;12.67;12.20;;;33.90;2.30;;;;;;4952037;29;20557;-63
2022/08/04 11:17:56;;;;;;;12.13;11.73;;;33.80;2.70;;;;;;4952401;29;20423;-63
2022/08/04 11:20:27;;;;;;;12.23;11.60;;;33.40;3.10;;;;;;4952484;28;20817;-63
2022/08/04 11:23:05;;;;;;;12.17;11.73;;;33.60;2.70;;;;;;4953912;29;20868;-63
2022/08/04 11:25:35;;;;;;;13.13;12.23;;;33.80;2.30;;;;;;4936836;29;20423;-63
2022/08/04 11:28:09;;;;;;;12.30;11.90;;;34.20;1.80;;;;;;4937067;29;20482;-64
2022/08/04 11:30:46;;;;;;;12.57;12.07;;;33.80;2.60;;;;;;4936780;29;20419;-63
2022/08/04 11:33:26;;;;;;;12.20;11.80;;;33.70;2.70;;;;;;4936826;29;20474;-63
2022/08/04 11:35:57;;;;;;;12.77;12.20;;;34.10;1.50;;;;;;4938426;29;20419;-63
2022/08/04 11:38:43;;;;;;;13.57;12.23;;;34.30;1.30;;;;;;4940134;29;20441;-63
2022/08/04 11:41:16;;;;;;;12.70;12.30;;;34.50;1.00;;;;;;4955653;29;20469;-63
2022/08/04 11:43:54;;;;;;;12.83;12.13;;;34.10;1.90;;;;;;4957224;28;20411;-63
2022/08/04 11:46:42;;;;;;;12.83;11.67;;;33.80;1.70;;;;;;4955459;29;20510;-64
2022/08/04 11:49:23;;;;;;;12.70;12.03;;;33.40;2.70;;;;;;4956489;28;20419;-64
2022/08/04 11:51:50;;;;;;;11.50;11.10;;;33.00;3.10;;;;;;4955164;29;20442;-65
2022/08/04 11:54:17;;;;;;;12.03;11.20;;;32.80;3.50;;;;;;4955479;29;21198;-65
2022/08/04 11:56:43;;;;;;;11.97;11.57;;;32.60;3.60;;;;;;4955484;29;20443;-64
2022/08/04 11:59:10;;;;;;;12.30;11.70;;;32.50;4.10;;;;;;4955508;29;20478;-64
2022/08/04 12:01:57;;;;;;;11.80;11.40;;;32.40;4.40;;;;;;4955200;29;20202;-64
2022/08/04 12:04:54;;;;;;;12.63;12.13;;;32.30;4.70;;;;;;4955345;29;20460;-66
2022/08/04 12:08:01;;;;;;;12.50;12.00;;;32.10;4.70;;;;;;4955223;29;20419;-67
2022/08/04 12:10:46;;;;;;;12.67;11.90;;;32.10;4.60;;;;;;4896762;29;20969;-66
2022/08/04 12:13:26;;;;;;;12.27;11.67;;;32.00;5.10;;;;;;4881832;29;20935;-66
2022/08/04 12:16:10;;;;;;;12.43;11.83;;;31.90;6.20;;;;;;4932277;29;20419;-66
2022/08/04 12:18:50;;;;;;;12.17;11.67;;;31.80;5.60;;;;;;4955027;29;21167;-66
2022/08/04 12:21:34;;;;;;;11.57;11.00;;;31.70;5.20;;;;;;4955090;29;20423;-66
2022/08/04 12:24:04;;;;;;;12.20;11.53;;;31.70;5.10;;;;;;4955073;29;20935;-66
2022/08/04 12:26:42;;;;;;;11.07;10.67;;;31.80;5.00;;;;;;4954981;29;20461;-66
2022/08/04 12:29:13;;;;;;;11.73;11.27;;;31.90;4.90;;;;;;4955350;29;20427;-66
2022/08/04 12:32:02;;;;;;;11.90;11.43;;;31.90;5.60;;;;;;4954717;29;20421;-66
2022/08/04 12:34:38;;;;;;;13.77;13.17;;;32.20;4.70;;;;;;4954878;29;20467;-67
2022/08/04 12:37:22;;;;;;;12.47;11.63;;;32.20;4.80;;;;;;4954884;29;20427;-66
2022/08/04 12:39:51;;;;;;;11.30;10.90;;;32.70;3.60;;;;;;4954885;29;20922;-66
2022/08/04 12:42:26;;;;;;;11.23;10.73;;;32.90;3.50;;;;;;4954677;29;20406;-66
2022/08/04 12:44:53;;;;;;;10.90;10.40;;;33.00;2.80;;;;;;4954879;29;20450;-66
2022/08/04 12:47:26;;;;;;;11.27;10.77;;;33.10;2.70;;;;;;4954621;29;20505;-66
2022/08/04 12:49:53;;;;;;;11.10;10.70;;;33.00;2.60;;;;;;4954644;29;20422;-66
2022/08/04 12:52:20;;;;;;;11.60;11.10;;;33.10;2.60;;;;;;4954373;29;20450;-66
2022/08/04 12:54:51;;;;;;;11.57;11.07;;;33.20;3.20;;;;;;4954605;29;20818;-66
2022/08/04 12:57:17;;;;;;;11.33;10.83;;;33.30;2.60;;;;;;4954517;29;20418;-66
2022/08/04 15:12:19;;;;;;;10.30;9.60;;;32.00;8.10;;;;;;5068016;28;20599;-39
2022/08/04 15:17:20;;;;;;;13.73;13.03;;;29.50;11.50;;;;;;5131179;27;20606;-80
2022/08/04 15:19:46;;;;;;;13.97;12.60;;;29.00;12.90;;;;;;5108889;28;20920;-83
2022/08/04 15:22:11;;;;;;;13.70;13.10;;;28.60;13.60;;;;;;5123472;28;20208;-82
2022/08/04 15:24:37;;;;;;;13.93;13.03;;;28.40;13.80;;;;;;5113011;28;20925;-76
2022/08/04 15:27:04;;;;;;;12.70;12.20;;;28.10;14.20;;;;;;5112867;28;20214;-79
2022/08/04 15:29:37;;;;;;;12.60;12.10;;;28.00;14.60;;;;;;5111917;28;20636;-78
2022/08/04 15:32:04;;;;;;;12.83;12.13;;;28.00;13.60;;;;;;5112217;28;20420;-79
2022/08/04 15:34:47;;;;;;;12.03;11.47;;;28.00;14.40;;;;;;5113573;28;20404;-78